| time (UTC) | temp C | wind direction | speed KPH | gust KPH | rain 1hr cm | rain 24hr cm | rain mn cm | humidity % | barometer mb |
| 20260510070921 | 18 | 343 | 0.0 | 0.0 | 0.00 | 0.00 | 0.00 | 99 | 1011.3 |
| 20260510070418 | 18 | 25 | 1.6 | 1.6 | 0.00 | 0.00 | 0.00 | 99 | 1011.5 |
| 20260510065913 | 18 | 19 | 1.6 | 1.6 | 0.00 | 0.00 | 0.00 | 99 | 1011.6 |
| 20260510065410 | 18 | 347 | 0.0 | 0.0 | 0.00 | 0.00 | 0.00 | 99 | 1011.5 |
| 20260510064906 | 18 | 346 | 0.0 | 0.0 | 0.00 | 0.00 | 0.00 | 99 | 1011.6 |
| 20260510064404 | 18 | 354 | 0.0 | 1.6 | 0.00 | 0.00 | 0.00 | 99 | 1011.6 |
| 20260510063900 | 18 | 355 | 0.0 | 1.6 | 0.00 | 0.00 | 0.00 | 99 | 1011.6 |
| 20260510063357 | 18 | 47 | 3.2 | 3.2 | 0.00 | 0.00 | 0.00 | 99 | 1011.4 |
| 20260510062854 | 18 | 25 | 3.2 | 3.2 | 0.00 | 0.00 | 0.00 | 99 | 1011.4 |
| 20260510062349 | 18 | 57 | 3.2 | 4.8 | 0.00 | 0.00 | 0.00 | 99 | 1011.1 |
| 20260510061845 | 18 | 32 | 1.6 | 1.6 | 0.00 | 0.00 | 0.00 | 99 | 1011.5 |
| 20260510061341 | 18 | 72 | 1.6 | 4.8 | 0.00 | 0.00 | 0.00 | 99 | 1011.4 |
| 20260510060837 | 18 | 354 | 1.6 | 4.8 | 0.00 | 0.00 | 0.00 | 99 | 1011.5 |
| 20260510060335 | 18 | 51 | 1.6 | 3.2 | 0.00 | 0.00 | 0.00 | 99 | 1011.7 |
| 20260510055832 | 18 | 8 | 1.6 | 3.2 | 0.00 | 0.00 | 0.00 | 99 | 1011.8 |
| 20260510055331 | 18 | 25 | 0.0 | 3.2 | 0.00 | 0.00 | 0.00 | 99 | 1011.6 |
| 20260510054830 | 18 | 25 | 0.0 | 3.2 | 0.00 | 0.00 | 0.00 | 99 | 1011.6 |
| 20260510054326 | 18 | 21 | 1.6 | 3.2 | 0.00 | 0.00 | 0.00 | 99 | 1011.5 |
| 20260510053821 | 18 | 5 | 0.0 | 1.6 | 0.00 | 0.00 | 0.00 | 99 | 1011.6 |
| 20260510053317 | 18 | 352 | 0.0 | 0.0 | 0.00 | 0.00 | 0.00 | 99 | 1011.8 |
| 20260510052814 | 18 | 338 | 0.0 | 0.0 | 0.00 | 0.00 | 0.00 | 99 | 1012.0 |
| 20260510052309 | 18 | 318 | 0.0 | 0.0 | 0.00 | 0.00 | 0.00 | 99 | 1012.0 |
| 20260510051805 | 18 | 318 | 0.0 | 0.0 | 0.00 | 0.00 | 0.00 | 99 | 1012.1 |
| 20260510051302 | 18 | 317 | 0.0 | 0.0 | 0.00 | 0.00 | 0.00 | 99 | 1011.9 |
| 20260510050759 | 18 | 330 | 1.6 | 1.6 | 0.00 | 0.00 | 0.00 | 99 | 1011.7 |
| 20260510050251 | 18 | 317 | 0.0 | 0.0 | 0.00 | 0.00 | 0.00 | 99 | 1011.8 |
| 20260510045748 | 18 | 298 | 1.6 | 1.6 | 0.00 | 0.03 | 0.03 | 99 | 1011.8 |
| 20260510045244 | 18 | 352 | 0.0 | 3.2 | 0.00 | 0.03 | 0.03 | 99 | 1011.5 |
| 20260510044741 | 18 | 15 | 1.6 | 1.6 | 0.00 | 0.03 | 0.03 | 99 | 1011.5 |
| 20260510044239 | 18 | 7 | 0.0 | 1.6 | 0.00 | 0.03 | 0.03 | 99 | 1011.8 |
| 20260510043734 | 18 | 347 | 0.0 | 0.0 | 0.00 | 0.03 | 0.03 | 99 | 1011.4 |
| 20260510043231 | 18 | 347 | 0.0 | 0.0 | 0.00 | 0.03 | 0.03 | 99 | 1011.3 |
| 20260510042728 | 18 | 337 | 1.6 | 4.8 | 0.00 | 0.03 | 0.03 | 99 | 1011.5 |
| 20260510042223 | 18 | 339 | 0.0 | 3.2 | 0.00 | 0.03 | 0.03 | 99 | 1011.1 |
| 20260510041721 | 18 | 11 | 0.0 | 1.6 | 0.00 | 0.03 | 0.03 | 99 | 1011.0 |
| 20260510041218 | 18 | 354 | 0.0 | 0.0 | 0.00 | 0.03 | 0.03 | 99 | 1011.3 |
| 20260510040709 | 19 | 13 | 0.0 | 3.2 | 0.00 | 0.03 | 0.03 | 99 | 1011.3 |
| 20260510040206 | 19 | 345 | 0.0 | 1.6 | 0.00 | 0.03 | 0.03 | 99 | 1011.9 |
| 20260510035702 | 19 | 15 | 1.6 | 3.2 | 0.00 | 0.03 | 0.03 | 99 | 1011.8 |
| 20260510035158 | 19 | 351 | 0.0 | 0.0 | 0.00 | 0.03 | 0.03 | 99 | 1012.1 |
| 20260510034654 | 19 | 337 | 0.0 | 1.6 | 0.00 | 0.03 | 0.03 | 99 | 1012.3 |
| 20260510034151 | 19 | 338 | 0.0 | 4.8 | 0.00 | 0.03 | 0.03 | 99 | 1012.2 |
| 20260510033647 | 19 | 305 | 1.6 | 3.2 | 0.00 | 0.03 | 0.03 | 99 | 1012.5 |
| 20260510033145 | 19 | 306 | 1.6 | 1.6 | 0.00 | 0.03 | 0.03 | 99 | 1012.5 |
| 20260510032641 | 19 | 62 | 1.6 | 4.8 | 0.00 | 0.03 | 0.03 | 99 | 1012.1 |
| 20260510032137 | 19 | 350 | 0.0 | 3.2 | 0.00 | 0.03 | 0.03 | 99 | 1012.2 |
| 20260510031631 | 19 | 48 | 1.6 | 1.6 | 0.00 | 0.03 | 0.03 | 99 | 1012.3 |
| 20260510031129 | 19 | 22 | 0.0 | 3.2 | 0.00 | 0.03 | 0.03 | 99 | 1012.4 |
| 20260510030622 | 19 | 354 | 0.0 | 0.0 | 0.00 | 0.03 | 0.03 | 99 | 1012.4 |
| 20260510030121 | 19 | 343 | 0.0 | 0.0 | 0.00 | 0.03 | 0.03 | 99 | 1012.1 |
| 20260510025617 | 19 | 326 | 0.0 | 0.0 | 0.00 | 0.03 | 0.03 | 99 | 1012.2 |
| 20260510025115 | 19 | 326 | 0.0 | 0.0 | 0.00 | 0.03 | 0.03 | 99 | 1012.2 |
| 20260510024611 | 19 | 351 | 0.0 | 1.6 | 0.00 | 0.03 | 0.03 | 99 | 1012.0 |
| 20260510024108 | 19 | 338 | 0.0 | 1.6 | 0.00 | 0.03 | 0.03 | 99 | 1012.4 |
| 20260510023604 | 19 | 343 | 0.0 | 1.6 | 0.00 | 0.03 | 0.03 | 99 | 1012.2 |
| 20260510023102 | 19 | 316 | 0.0 | 1.6 | 0.00 | 0.03 | 0.03 | 99 | 1012.1 |
| 20260510022601 | 19 | 312 | 0.0 | 1.6 | 0.00 | 0.03 | 0.03 | 99 | 1011.9 |
| 20260510022056 | 19 | 337 | 0.0 | 3.2 | 0.00 | 0.03 | 0.03 | 99 | 1011.4 |
| 20260510021553 | 19 | 338 | 4.8 | 8.0 | 0.00 | 0.03 | 0.03 | 99 | 1011.4 |
| 20260510021050 | 19 | 356 | 1.6 | 8.0 | 0.00 | 0.03 | 0.03 | 99 | 1011.2 |
| 20260510020549 | 19 | 328 | 4.8 | 4.8 | 0.00 | 0.03 | 0.03 | 99 | 1011.2 |
| 20260510020046 | 19 | 307 | 4.8 | 12.9 | 0.00 | 0.03 | 0.03 | 99 | 1011.3 |
| 20260510015542 | 19 | 3 | 9.7 | 12.9 | 0.00 | 0.03 | 0.03 | 99 | 1010.7 |
| 20260510015038 | 19 | 317 | 0.0 | 0.0 | 0.00 | 0.03 | 0.03 | 99 | 1010.7 |
| 20260510014534 | 19 | 321 | 0.0 | 0.0 | 0.00 | 0.03 | 0.03 | 99 | 1010.7 |
| 20260510014031 | 19 | 344 | 0.0 | 0.0 | 0.00 | 0.03 | 0.03 | 99 | 1010.8 |
| 20260510013526 | 19 | 311 | 0.0 | 1.6 | 0.00 | 0.03 | 0.03 | 99 | 1011.0 |
| 20260510013022 | 18 | 343 | 0.0 | 1.6 | 0.00 | 0.03 | 0.03 | 99 | 1010.8 |
| 20260510012516 | 18 | 307 | 0.0 | 4.8 | 0.00 | 0.03 | 0.03 | 99 | 1011.0 |
| 20260510012012 | 18 | 317 | 0.0 | 1.6 | 0.00 | 0.03 | 0.03 | 99 | 1010.2 |
| 20260510011507 | 18 | 11 | 1.6 | 1.6 | 0.00 | 0.03 | 0.03 | 99 | 1010.0 |
| 20260510011003 | 18 | 328 | 0.0 | 0.0 | 0.00 | 0.03 | 0.03 | 99 | 1010.7 |
| 20260510010501 | 18 | 2 | 0.0 | 1.6 | 0.00 | 0.03 | 0.03 | 99 | 1010.4 |
| 20260510005957 | 18 | 350 | 0.0 | 0.0 | 0.00 | 0.03 | 0.03 | 99 | 1010.7 |
| 20260510005453 | 18 | 338 | 0.0 | 0.0 | 0.00 | 0.03 | 0.03 | 99 | 1011.1 |
| 20260510004950 | 18 | 344 | 0.0 | 0.0 | 0.00 | 0.03 | 0.03 | 99 | 1011.1 |
| 20260510004447 | 18 | 314 | 0.0 | 0.0 | 0.00 | 0.03 | 0.03 | 99 | 1010.9 |
| 20260510003946 | 18 | 54 | 1.6 | 3.2 | 0.00 | 0.03 | 0.03 | 99 | 1010.5 |
| 20260510003442 | 18 | 342 | 1.6 | 1.6 | 0.00 | 0.03 | 0.03 | 99 | 1010.8 |
| 20260510002943 | 18 | 325 | 1.6 | 3.2 | 0.00 | 0.03 | 0.03 | 99 | 1010.8 |
| 20260510002439 | 18 | 346 | 0.0 | 1.6 | 0.00 | 0.03 | 0.03 | 99 | 1010.7 |
| 20260510001935 | 18 | 335 | 0.0 | 0.0 | 0.00 | 0.03 | 0.03 | 99 | 1010.7 |
| 20260510001433 | 18 | 340 | 0.0 | 1.6 | 0.18 | 0.03 | 0.03 | 99 | 1010.7 |
| 20260510000930 | 18 | 344 | 0.0 | 0.0 | 0.00 | 0.00 | 0.00 | 99 | 1010.8 |
| 20260510000426 | 19 | 342 | 0.0 | 0.0 | 0.00 | 0.00 | 0.00 | 99 | 1011.0 |
| 20260509235923 | 19 | 321 | 0.0 | 0.0 | 0.00 | 0.00 | 0.00 | 99 | 1011.1 |
| 20260509235420 | 19 | 332 | 0.0 | 0.0 | 0.00 | 0.00 | 0.00 | 99 | 1011.0 |
| 20260509234916 | 19 | 332 | 0.0 | 0.0 | 0.00 | 0.00 | 0.00 | 99 | 1011.2 |
| 20260509234413 | 19 | 330 | 0.0 | 0.0 | 0.00 | 0.00 | 0.00 | 99 | 1011.3 |
| 20260509233911 | 19 | 334 | 0.0 | 0.0 | 0.00 | 0.00 | 0.00 | 99 | 1011.3 |
| 20260509233408 | 19 | 344 | 0.0 | 0.0 | 0.00 | 0.00 | 0.00 | 99 | 1011.2 |
| 20260509232904 | 19 | 335 | 0.0 | 0.0 | 0.00 | 0.00 | 0.00 | 99 | 1011.8 |
| 20260509232402 | 19 | 350 | 0.0 | 0.0 | 0.00 | 0.00 | 0.00 | 99 | 1011.6 |
| 20260509231857 | 19 | 295 | 1.6 | 1.6 | 0.00 | 0.00 | 0.00 | 99 | 1011.4 |
| 20260509231355 | 19 | 334 | 0.0 | 0.0 | 0.00 | 0.00 | 0.00 | 99 | 1010.6 |
| 20260509230853 | 19 | 337 | 0.0 | 0.0 | 0.00 | 0.00 | 0.00 | 99 | 1010.5 |
| 20260509230349 | 19 | 335 | 0.0 | 0.0 | 0.00 | 0.00 | 0.00 | 99 | 1010.3 |
| 20260509225845 | 19 | 350 | 1.6 | 1.6 | 0.00 | 0.00 | 0.00 | 99 | 1010.1 |
| 20260509225342 | 19 | 345 | 3.2 | 4.8 | 0.00 | 0.00 | 0.00 | 99 | 1010.3 |
| 20260509224837 | 19 | 42 | 3.2 | 3.2 | 0.00 | 0.00 | 0.00 | 99 | 1010.0 |
| 20260509224333 | 19 | 353 | 0.0 | 1.6 | 0.00 | 0.00 | 0.00 | 99 | 1010.2 |
| 20260509223831 | 19 | 334 | 0.0 | 0.0 | 0.00 | 0.00 | 0.00 | 99 | 1010.7 |
| 20260509223327 | 19 | 328 | 0.0 | 0.0 | 0.00 | 0.00 | 0.00 | 99 | 1010.7 |
| 20260509222825 | 19 | 308 | 0.0 | 1.6 | 0.00 | 0.00 | 0.00 | 99 | 1011.0 |
| 20260509222320 | 19 | 302 | 0.0 | 1.6 | 0.00 | 0.00 | 0.00 | 99 | 1010.6 |
| 20260509221816 | 19 | 309 | 0.0 | 0.0 | 0.00 | 0.00 | 0.00 | 99 | 1010.6 |
| 20260509221314 | 19 | 6 | 0.0 | 1.6 | 0.00 | 0.00 | 0.00 | 99 | 1010.8 |
| 20260509220814 | 19 | 333 | 0.0 | 0.0 | 0.00 | 0.00 | 0.00 | 99 | 1011.0 |
| 20260509220310 | 20 | 314 | 0.0 | 1.6 | 0.00 | 0.00 | 0.00 | 99 | 1010.5 |
| 20260509215806 | 20 | 335 | 0.0 | 0.0 | 0.00 | 0.00 | 0.00 | 99 | 1010.4 |
| 20260509215305 | 20 | 320 | 0.0 | 0.0 | 0.00 | 0.00 | 0.00 | 99 | 1010.4 |
| 20260509214759 | 20 | 311 | 0.0 | 1.6 | 0.00 | 0.00 | 0.00 | 99 | 1009.7 |
| 20260509214257 | 20 | 324 | 0.0 | 0.0 | 0.00 | 0.00 | 0.00 | 99 | 1009.5 |
| 20260509213753 | 20 | 324 | 0.0 | 0.0 | 0.00 | 0.00 | 0.00 | 99 | 1009.4 |
| 20260509213249 | 20 | 332 | 0.0 | 0.0 | 0.00 | 0.00 | 0.00 | 99 | 1009.2 |
| 20260509212747 | 20 | 335 | 0.0 | 0.0 | 0.00 | 0.00 | 0.00 | 99 | 1009.7 |
| 20260509212244 | 20 | 326 | 0.0 | 0.0 | 0.00 | 0.00 | 0.00 | 99 | 1009.5 |
| 20260509211739 | 20 | 316 | 0.0 | 0.0 | 0.00 | 0.00 | 0.00 | 99 | 1009.6 |
| 20260509211236 | 20 | 317 | 0.0 | 0.0 | 0.00 | 0.00 | 0.00 | 99 | 1009.6 |
| 20260509210732 | 20 | 311 | 0.0 | 1.6 | 0.00 | 0.00 | 0.00 | 99 | 1009.5 |
| 20260509210231 | 20 | 331 | 0.0 | 3.2 | 0.00 | 0.00 | 0.00 | 99 | 1009.1 |
| 20260509205730 | 20 | 340 | 0.0 | 1.6 | 0.00 | 0.00 | 0.00 | 99 | 1008.9 |
| 20260509205230 | 20 | 336 | 0.0 | 0.0 | 0.00 | 0.00 | 0.00 | 99 | 1009.1 |
| 20260509204726 | 20 | 325 | 0.0 | 0.0 | 0.00 | 0.00 | 0.00 | 99 | 1009.0 |
| 20260509204223 | 20 | 338 | 0.0 | 0.0 | 0.00 | 0.00 | 0.00 | 99 | 1009.4 |
| 20260509203718 | 20 | 346 | 0.0 | 0.0 | 0.00 | 0.00 | 0.00 | 99 | 1009.9 |
| 20260509203217 | 20 | 5 | 0.0 | 3.2 | 0.00 | 0.00 | 0.00 | 99 | 1010.6 |
| 20260509202712 | 20 | 334 | 0.0 | 1.6 | 0.00 | 0.00 | 0.00 | 99 | 1010.9 |
| 20260509202207 | 19 | 2 | 0.0 | 0.0 | 0.00 | 0.00 | 0.00 | 99 | 1010.9 |
| 20260509201703 | 19 | 315 | 0.0 | 1.6 | 0.00 | 0.00 | 0.00 | 99 | 1010.4 |
| 20260509201200 | 19 | 311 | 0.0 | 1.6 | 0.00 | 0.00 | 0.00 | 99 | 1010.2 |
| 20260509200656 | 19 | 326 | 0.0 | 1.6 | 0.00 | 0.00 | 0.00 | 99 | 1010.1 |
| 20260509200151 | 19 | 325 | 0.0 | 0.0 | 0.00 | 0.00 | 0.00 | 99 | 1010.2 |
| 20260509195648 | 19 | 329 | 0.0 | 0.0 | 0.00 | 0.00 | 0.00 | 99 | 1010.4 |
| 20260509195143 | 19 | 319 | 0.0 | 0.0 | 0.00 | 0.00 | 0.00 | 99 | 1010.7 |
| 20260509194642 | 19 | 328 | 0.0 | 0.0 | 0.00 | 0.00 | 0.00 | 99 | 1010.8 |
| 20260509194140 | 19 | 324 | 0.0 | 0.0 | 0.00 | 0.00 | 0.00 | 99 | 1010.8 |
| 20260509193636 | 19 | 326 | 0.0 | 0.0 | 0.00 | 0.00 | 0.00 | 99 | 1011.0 |
| 20260509193131 | 19 | 331 | 0.0 | 0.0 | 0.00 | 0.00 | 0.00 | 99 | 1010.6 |
| 20260509192628 | 19 | 323 | 0.0 | 1.6 | 0.00 | 0.00 | 0.00 | 99 | 1010.9 |
| 20260509192124 | 19 | 318 | 0.0 | 1.6 | 0.00 | 0.00 | 0.00 | 99 | 1010.9 |
| 20260509191623 | 19 | 327 | 0.0 | 0.0 | 0.00 | 0.00 | 0.00 | 99 | 1010.5 |
| 20260509191120 | 19 | 327 | 0.0 | 0.0 | 0.00 | 0.00 | 0.00 | 99 | 1010.4 |
| 20260509190617 | 19 | 324 | 0.0 | 0.0 | 0.00 | 0.00 | 0.00 | 99 | 1010.7 |
| 20260509190114 | 18 | 311 | 0.0 | 1.6 | 0.00 | 0.00 | 0.00 | 99 | 1010.5 |
| 20260509185612 | 18 | 347 | 0.0 | 0.0 | 0.00 | 0.00 | 0.00 | 99 | 1010.5 |
| 20260509185108 | 18 | 318 | 0.0 | 3.2 | 0.00 | 0.00 | 0.00 | 99 | 1010.8 |
| 20260509184606 | 18 | 337 | 0.0 | 0.0 | 0.00 | 0.00 | 0.00 | 99 | 1010.4 |
| 20260509184102 | 18 | 325 | 0.0 | 1.6 | 0.00 | 0.00 | 0.00 | 99 | 1011.2 |
| 20260509183558 | 18 | 292 | 1.6 | 3.2 | 0.00 | 0.00 | 0.00 | 99 | 1010.3 |
| 20260509183054 | 18 | 60 | 3.2 | 3.2 | 0.00 | 0.00 | 0.00 | 99 | 1010.0 |
| 20260509182550 | 18 | 301 | 0.0 | 8.0 | 0.00 | 0.00 | 0.00 | 99 | 1010.5 |
| 20260509182047 | 18 | 313 | 0.0 | 1.6 | 0.00 | 0.00 | 0.00 | 99 | 1010.2 |
| 20260509181546 | 18 | 49 | 1.6 | 3.2 | 0.00 | 0.00 | 0.00 | 99 | 1010.5 |
| 20260509181042 | 18 | 322 | 0.0 | 0.0 | 0.00 | 0.00 | 0.00 | 99 | 1011.0 |
| 20260509180538 | 18 | 348 | 0.0 | 1.6 | 0.00 | 0.00 | 0.00 | 99 | 1011.2 |
| 20260509180036 | 18 | 341 | 0.0 | 0.0 | 0.00 | 0.00 | 0.00 | 99 | 1011.1 |
| 20260509175531 | 18 | 324 | 0.0 | 1.6 | 0.00 | 0.00 | 0.00 | 99 | 1011.4 |
| 20260509175028 | 18 | 324 | 0.0 | 0.0 | 0.00 | 0.00 | 0.00 | 99 | 1011.1 |
| 20260509174525 | 18 | 324 | 0.0 | 0.0 | 0.00 | 0.00 | 0.00 | 99 | 1011.0 |
| 20260509174020 | 18 | 324 | 0.0 | 0.0 | 0.00 | 0.00 | 0.00 | 99 | 1011.2 |
| 20260509173514 | 18 | 324 | 0.0 | 0.0 | 0.00 | 0.00 | 0.00 | 99 | 1011.5 |
| 20260509173011 | 18 | 324 | 0.0 | 1.6 | 0.00 | 0.00 | 0.00 | 99 | 1011.3 |
| 20260509172508 | 18 | 353 | 0.0 | 1.6 | 0.00 | 0.00 | 0.00 | 99 | 1011.1 |
| 20260509172003 | 18 | 312 | 0.0 | 3.2 | 0.00 | 0.00 | 0.00 | 99 | 1011.7 |
| 20260509171500 | 18 | 315 | 0.0 | 0.0 | 0.00 | 0.00 | 0.00 | 99 | 1011.2 |
| 20260509170956 | 18 | 315 | 1.6 | 3.2 | 0.00 | 0.00 | 0.00 | 99 | 1011.5 |
| 20260509170452 | 18 | 317 | 0.0 | 0.0 | 0.00 | 0.00 | 0.00 | 99 | 1011.2 |
| 20260509165948 | 17 | 323 | 0.0 | 3.2 | 0.00 | 0.00 | 0.00 | 99 | 1011.1 |
| 20260509165447 | 17 | 108 | 1.6 | 1.6 | 0.00 | 0.00 | 0.00 | 99 | 1010.7 |
| 20260509164943 | 17 | 93 | 1.6 | 4.8 | 0.00 | 0.00 | 0.00 | 99 | 1011.0 |
| 20260509164439 | 17 | 59 | 1.6 | 8.0 | 0.00 | 0.00 | 0.00 | 99 | 1010.7 |
| 20260509163935 | 17 | 76 | 8.0 | 9.7 | 0.00 | 0.00 | 0.00 | 99 | 1011.3 |
| 20260509163433 | 17 | 59 | 1.6 | 3.2 | 0.00 | 0.00 | 0.00 | 99 | 1011.8 |
| 20260509162931 | 17 | 1 | 0.0 | 0.0 | 0.00 | 0.00 | 0.00 | 99 | 1012.2 |
| 20260509162431 | 17 | 322 | 0.0 | 1.6 | 0.00 | 0.00 | 0.00 | 99 | 1012.5 |
| 20260509161926 | 17 | 28 | 0.0 | 0.0 | 0.00 | 0.00 | 0.00 | 99 | 1012.3 |
| 20260509161423 | 17 | 41 | 0.0 | 1.6 | 0.00 | 0.00 | 0.00 | 99 | 1012.0 |
| 20260509160918 | 17 | 33 | 0.0 | 1.6 | 0.00 | 0.00 | 0.00 | 99 | 1012.2 |
| 20260509160414 | 17 | 26 | 0.0 | 3.2 | 0.00 | 0.00 | 0.00 | 99 | 1012.1 |
| 20260509155909 | 17 | 47 | 0.0 | 1.6 | 0.00 | 0.00 | 0.00 | 99 | 1012.2 |
| 20260509155406 | 17 | 46 | 0.0 | 1.6 | 0.00 | 0.00 | 0.00 | 99 | 1012.2 |
| 20260509154903 | 17 | 42 | 0.0 | 1.6 | 0.00 | 0.00 | 0.00 | 99 | 1012.2 |
| 20260509154359 | 17 | 44 | 0.0 | 1.6 | 0.00 | 0.00 | 0.00 | 99 | 1012.3 |
| 20260509153855 | 17 | 43 | 0.0 | 1.6 | 0.00 | 0.00 | 0.00 | 99 | 1012.2 |
| 20260509153353 | 17 | 34 | 0.0 | 3.2 | 0.00 | 0.00 | 0.00 | 99 | 1012.1 |
| 20260509152850 | 17 | 36 | 0.0 | 0.0 | 0.00 | 0.00 | 0.00 | 99 | 1012.2 |
| 20260509152346 | 17 | 41 | 0.0 | 1.6 | 0.00 | 0.00 | 0.00 | 99 | 1012.2 |
| 20260509151843 | 17 | 43 | 0.0 | 3.2 | 0.00 | 0.00 | 0.00 | 99 | 1012.1 |
| 20260509151339 | 17 | 21 | 0.0 | 1.6 | 0.00 | 0.00 | 0.00 | 99 | 1012.2 |
| 20260509150838 | 17 | 61 | 3.2 | 8.0 | 0.00 | 0.00 | 0.00 | 99 | 1012.4 |
| 20260509150335 | 17 | 46 | 0.0 | 4.8 | 0.00 | 0.00 | 0.00 | 99 | 1012.1 |
| 20260509145832 | 17 | 59 | 4.8 | 4.8 | 0.00 | 0.00 | 0.00 | 99 | 1012.3 |
| 20260509145327 | 17 | 64 | 1.6 | 4.8 | 0.00 | 0.00 | 0.00 | 99 | 1012.0 |
| 20260509144823 | 17 | 56 | 4.8 | 9.7 | 0.00 | 0.00 | 0.00 | 99 | 1011.7 |
| 20260509144320 | 17 | 70 | 4.8 | 8.0 | 0.00 | 0.00 | 0.00 | 99 | 1011.7 |
| 20260509143818 | 17 | 63 | 8.0 | 9.7 | 0.00 | 0.00 | 0.00 | 99 | 1011.4 |
| 20260509143315 | 17 | 76 | 4.8 | 9.7 | 0.00 | 0.00 | 0.00 | 99 | 1011.6 |